createdAt,value
2023-04-16T00:00:14.184Z,8.32
2023-04-16T00:04:06.401Z,8.37
2023-04-16T00:06:34.180Z,8.36
2023-04-16T00:12:31.616Z,8.44
2023-04-16T00:15:08.150Z,8.41
2023-04-16T00:24:45.833Z,8.30
2023-04-16T00:27:14.241Z,8.29
2023-04-16T00:29:48.964Z,8.36
2023-04-16T00:32:30.639Z,8.41
2023-04-16T00:35:01.248Z,8.43
2023-04-16T00:38:17.272Z,8.44
2023-04-16T00:41:49.675Z,8.43
2023-04-16T00:48:48.950Z,8.43
2023-04-16T00:51:16.645Z,8.39
2023-04-16T00:53:45.417Z,8.40
2023-04-16T00:56:20.729Z,8.32
2023-04-16T00:58:59.438Z,8.35
2023-04-16T01:10:30.302Z,8.26
2023-04-16T01:13:59.741Z,8.24
2023-04-16T01:25:06.869Z,8.10
2023-04-16T01:27:56.456Z,8.08
2023-04-16T02:00:23.257Z,7.77
2023-04-16T02:02:54.362Z,7.73
2023-04-16T02:05:35.505Z,7.79
2023-04-16T02:08:11.406Z,7.76
2023-04-16T02:10:53.793Z,7.73
2023-04-16T02:13:34.751Z,7.73
2023-04-16T02:29:02.219Z,7.54
2023-04-16T02:53:18.815Z,7.29
2023-04-16T03:16:58.037Z,7.43
2023-04-16T03:19:30.574Z,7.44
2023-04-16T03:21:57.362Z,7.44
2023-04-16T03:24:24.174Z,7.47
2023-04-16T03:26:58.061Z,7.52
2023-04-16T03:29:27.266Z,7.57
2023-04-16T03:35:43.736Z,7.58
2023-04-16T03:38:22.615Z,7.50
2023-04-16T03:40:49.681Z,7.44
2023-04-16T03:43:19.460Z,7.56
2023-04-16T03:45:47.060Z,7.51
2023-04-16T03:48:14.165Z,7.49
2023-04-16T03:50:41.854Z,7.63
2023-04-16T03:53:08.737Z,7.47
2023-04-16T03:55:36.438Z,7.59
2023-04-16T03:58:05.157Z,7.52
2023-04-16T04:00:32.567Z,7.48
2023-04-16T04:02:59.691Z,7.50
2023-04-16T04:05:29.802Z,7.56
2023-04-16T04:07:56.873Z,7.62
2023-04-16T04:10:24.051Z,7.62
2023-04-16T04:13:01.157Z,7.61
2023-04-16T04:15:28.217Z,7.66
2023-04-16T04:18:04.512Z,7.74
2023-04-16T04:20:52.779Z,7.85
2023-04-16T04:23:28.352Z,7.91
2023-04-16T04:29:12.688Z,8.00
2023-04-16T04:35:50.952Z,7.81
2023-04-16T04:41:32.216Z,8.01
2023-04-16T04:43:59.990Z,8.02
2023-04-16T04:46:30.106Z,8.01
2023-04-16T04:49:03.869Z,8.06
2023-04-16T04:51:36.067Z,8.11
2023-04-16T04:54:02.757Z,8.14
2023-04-16T04:59:53.641Z,8.43
2023-04-16T05:02:30.930Z,8.54
2023-04-16T05:05:30.700Z,8.62
2023-04-16T05:10:55.687Z,8.81
2023-04-16T05:13:34.415Z,8.91
2023-04-16T05:16:13.274Z,9.02
2023-04-16T05:18:56.871Z,9.13
2023-04-16T05:21:41.987Z,9.21
2023-04-16T05:24:36.652Z,9.38
2023-04-16T05:27:19.144Z,9.53
2023-04-16T05:29:46.744Z,9.64
2023-04-16T05:32:14.475Z,9.70
2023-04-16T05:34:41.305Z,9.88
2023-04-16T05:37:11.672Z,10.05
2023-04-16T05:42:51.069Z,10.59
2023-04-16T05:45:57.300Z,10.91
2023-04-16T05:49:23.531Z,11.12
2023-04-16T05:52:07.106Z,11.25
2023-04-16T05:55:00.561Z,11.44
2023-04-16T05:57:29.187Z,11.57
2023-04-16T06:03:21.934Z,11.95
2023-04-16T06:08:38.366Z,12.18
2023-04-16T06:14:35.295Z,12.48
2023-04-16T06:18:03.560Z,12.72
2023-04-16T06:20:19.294Z,12.89
2023-04-16T06:25:56.536Z,13.25
2023-04-16T06:31:13.826Z,13.56
2023-04-16T06:44:54.206Z,13.98
2023-04-16T06:47:21.261Z,14.07
2023-04-16T06:49:47.945Z,14.09
2023-04-16T06:52:47.505Z,14.13
2023-04-16T06:55:14.242Z,14.16
2023-04-16T06:57:41.328Z,14.23
2023-04-16T07:00:21.414Z,14.35
2023-04-16T07:03:38.275Z,14.39
2023-04-16T07:05:39.420Z,14.49
2023-04-16T07:08:14.238Z,14.65
2023-04-16T07:10:41.054Z,14.79
2023-04-16T07:16:37.938Z,15.00
2023-04-16T07:19:04.908Z,15.12
2023-04-16T07:24:45.597Z,15.70
2023-04-16T07:27:15.383Z,16.04
2023-04-16T07:33:30.101Z,16.51
2023-04-16T07:35:56.894Z,16.82
2023-04-16T07:38:29.493Z,16.93
2023-04-16T07:41:41.355Z,16.99
2023-04-16T07:44:25.997Z,17.34
2023-04-16T07:47:07.952Z,17.72
2023-04-16T07:49:46.557Z,17.96
2023-04-16T07:52:32.557Z,18.24
2023-04-16T07:54:59.532Z,18.22
2023-04-16T07:57:26.770Z,18.46
2023-04-16T07:59:53.608Z,18.55
2023-04-16T08:02:20.416Z,18.36
2023-04-16T08:04:48.090Z,18.40
2023-04-16T08:07:14.907Z,18.33
2023-04-16T08:10:03.736Z,18.17
2023-04-16T08:12:31.202Z,18.47
2023-04-16T08:14:57.861Z,18.60
2023-04-16T08:20:30.561Z,18.24
2023-04-16T08:26:01.482Z,18.75
2023-04-16T08:28:28.176Z,18.74
2023-04-16T08:30:55.020Z,18.88
2023-04-16T08:33:57.274Z,18.98
2023-04-16T08:36:24.572Z,18.98
2023-04-16T08:38:58.537Z,18.79
2023-04-16T08:45:25.137Z,18.53
2023-04-16T08:48:41.989Z,18.49
2023-04-16T09:01:42.081Z,17.30
2023-04-16T09:04:29.592Z,17.10
2023-04-16T09:06:59.704Z,16.79
2023-04-16T09:09:26.978Z,16.85
2023-04-16T09:12:14.321Z,16.85
2023-04-16T09:15:28.107Z,16.81
2023-04-16T09:17:56.848Z,16.72
2023-04-16T09:20:23.955Z,16.73
2023-04-16T09:29:01.478Z,16.88
2023-04-16T09:37:20.848Z,16.93
2023-04-16T09:43:35.517Z,16.90
2023-04-16T09:43:38.242Z,16.91
2023-04-16T09:52:40.693Z,17.30
2023-04-16T09:55:30.844Z,17.64
2023-04-16T09:58:01.707Z,17.65
2023-04-16T10:00:31.185Z,17.62
2023-04-16T10:03:45.913Z,17.79
2023-04-16T10:06:17.343Z,17.96
2023-04-16T10:08:52.111Z,17.98
2023-04-16T10:11:20.306Z,17.99
2023-04-16T10:13:47.596Z,18.05
2023-04-16T10:16:17.653Z,18.07
2023-04-16T10:18:46.498Z,18.03
2023-04-16T10:21:21.858Z,18.07
2023-04-16T10:23:49.836Z,18.08
2023-04-16T10:26:26.929Z,18.19
2023-04-16T10:28:58.117Z,18.01
2023-04-16T10:31:26.582Z,18.06
2023-04-16T10:33:53.881Z,18.22
2023-04-16T10:36:28.283Z,18.50
2023-04-16T10:42:32.725Z,18.85
2023-04-16T10:45:00.865Z,19.00
2023-04-16T10:47:29.788Z,19.31
2023-04-16T10:50:01.841Z,19.45
2023-04-16T10:52:29.665Z,19.43
2023-04-16T10:55:01.427Z,19.52
2023-04-16T10:57:32.604Z,19.46
2023-04-16T10:59:59.545Z,19.42
2023-04-16T11:02:30.307Z,19.12
2023-04-16T11:04:58.026Z,18.88
2023-04-16T11:07:39.416Z,18.79
2023-04-16T11:10:08.195Z,18.83
2023-04-16T11:12:39.775Z,18.87
2023-04-16T11:15:08.375Z,18.93
2023-04-16T11:17:48.739Z,18.81
2023-04-16T11:20:25.009Z,18.77
2023-04-16T11:22:54.005Z,18.69
2023-04-16T11:25:24.964Z,18.83
2023-04-16T11:27:52.665Z,18.86
2023-04-16T11:30:40.761Z,18.93
2023-04-16T11:33:18.831Z,18.99
2023-04-16T11:39:03.781Z,18.75
2023-04-16T11:41:57.963Z,18.68
2023-04-16T11:44:28.037Z,18.51
2023-04-16T11:53:34.653Z,18.38
2023-04-16T11:56:14.464Z,18.43
2023-04-16T11:59:27.755Z,18.46
2023-04-16T12:01:58.497Z,18.64
2023-04-16T12:10:56.282Z,18.75
2023-04-16T12:13:59.078Z,18.96
2023-04-16T12:17:17.361Z,18.89
2023-04-16T12:19:57.930Z,19.11
2023-04-16T12:22:34.651Z,19.38
2023-04-16T12:25:07.769Z,19.75
2023-04-16T12:31:43.081Z,20.03
2023-04-16T12:36:03.034Z,20.09
2023-04-16T12:38:05.425Z,20.22
2023-04-16T12:40:52.644Z,20.22
2023-04-16T12:43:22.824Z,20.26
2023-04-16T12:52:47.109Z,20.33
2023-04-16T12:55:14.683Z,20.50
2023-04-16T12:57:41.538Z,20.48
2023-04-16T13:00:10.704Z,20.48
2023-04-16T13:03:41.356Z,20.65
2023-04-16T13:09:15.035Z,21.09
2023-04-16T13:14:52.350Z,20.82
2023-04-16T13:17:19.392Z,20.56
2023-04-16T13:19:49.020Z,20.68
2023-04-16T13:22:19.427Z,20.83
2023-04-16T13:27:32.264Z,20.79
2023-04-16T13:30:12.113Z,21.06
2023-04-16T13:32:44.488Z,21.20
2023-04-16T13:35:11.934Z,21.42
2023-04-16T13:38:29.603Z,21.65
2023-04-16T13:40:56.464Z,21.56
2023-04-16T13:43:23.514Z,21.63
2023-04-16T13:46:31.827Z,21.72
2023-04-16T13:49:34.990Z,21.96
2023-04-16T13:52:02.521Z,22.01
2023-04-16T13:54:39.294Z,22.06
2023-04-16T13:57:10.060Z,21.94
2023-04-16T13:59:37.476Z,21.74
2023-04-16T14:02:11.798Z,21.55
2023-04-16T14:04:47.014Z,21.27
2023-04-16T14:07:24.551Z,21.23
2023-04-16T14:09:51.134Z,21.13
2023-04-16T14:13:25.742Z,21.12
2023-04-16T14:20:14.365Z,20.61
2023-04-16T14:26:23.801Z,20.56
2023-04-16T14:29:53.640Z,20.05
2023-04-16T14:32:56.462Z,19.91
2023-04-16T14:35:23.753Z,19.59
2023-04-16T14:40:46.084Z,19.27
2023-04-16T14:43:19.031Z,19.30
2023-04-16T14:45:46.493Z,19.29
2023-04-16T14:48:13.828Z,19.43
2023-04-16T14:50:44.310Z,19.49
2023-04-16T14:53:21.309Z,19.44
2023-04-16T14:55:48.130Z,19.37
2023-04-16T14:58:17.666Z,19.32
2023-04-16T15:00:47.734Z,19.44
2023-04-16T15:03:24.098Z,19.57
2023-04-16T15:06:01.753Z,19.69
2023-04-16T15:08:28.547Z,19.92
2023-04-16T15:10:58.334Z,20.15
2023-04-16T15:13:25.535Z,20.15
2023-04-16T15:15:59.579Z,20.06
2023-04-16T15:18:30.181Z,20.14
2023-04-16T15:20:57.127Z,20.15
2023-04-16T15:23:24.607Z,20.20
2023-04-16T15:25:52.216Z,20.26
2023-04-16T15:28:22.474Z,20.28
2023-04-16T15:30:53.231Z,20.34
2023-04-16T15:33:32.708Z,20.39
2023-04-16T15:36:19.381Z,20.53
2023-04-16T15:39:05.132Z,20.60
2023-04-16T15:41:33.059Z,20.79
2023-04-16T15:44:03.448Z,20.74
2023-04-16T15:46:30.897Z,20.41
2023-04-16T15:49:26.337Z,19.89
2023-04-16T15:51:54.190Z,19.54
2023-04-16T15:54:21.856Z,19.16
2023-04-16T15:56:49.243Z,18.91
2023-04-16T15:59:17.107Z,18.79
2023-04-16T16:01:55.822Z,18.52
2023-04-16T16:04:24.108Z,18.42
2023-04-16T16:07:03.348Z,18.20
2023-04-16T16:09:43.284Z,18.07
2023-04-16T16:12:10.397Z,17.95
2023-04-16T16:14:40.767Z,17.84
2023-04-16T16:17:21.315Z,17.79
2023-04-16T16:19:50.855Z,17.59
2023-04-16T16:22:20.634Z,17.53
2023-04-16T16:25:00.927Z,17.51
2023-04-16T16:27:28.493Z,17.46
2023-04-16T16:29:55.492Z,17.36
2023-04-16T16:32:22.470Z,17.22
2023-04-16T16:34:49.314Z,17.15
2023-04-16T16:37:16.613Z,17.07
2023-04-16T16:39:46.338Z,17.06
2023-04-16T16:42:14.138Z,16.98
2023-04-16T16:44:41.344Z,16.90
2023-04-16T16:47:08.183Z,16.80
2023-04-16T16:49:38.052Z,16.83
2023-04-16T16:52:05.160Z,16.72
2023-04-16T16:54:31.804Z,16.71
2023-04-16T16:56:58.914Z,16.66
2023-04-16T16:59:29.730Z,16.53
2023-04-16T17:01:56.770Z,16.47
2023-04-16T17:04:25.386Z,16.48
2023-04-16T17:07:32.837Z,16.42
2023-04-16T17:10:21.355Z,16.28
2023-04-16T17:13:06.960Z,16.10
2023-04-16T17:15:34.815Z,15.96
2023-04-16T17:18:01.591Z,15.89
2023-04-16T17:20:28.532Z,15.87
2023-04-16T17:22:59.489Z,15.78
2023-04-16T17:28:33.867Z,15.64
2023-04-16T17:31:38.161Z,15.59
2023-04-16T17:34:08.764Z,15.59
2023-04-16T17:36:50.363Z,15.57
2023-04-16T17:39:27.545Z,15.46
2023-04-16T17:42:35.451Z,15.45
2023-04-16T17:45:09.590Z,15.40
2023-04-16T17:47:42.712Z,15.35
2023-04-16T17:50:40.139Z,15.25
2023-04-16T17:56:07.348Z,15.09
2023-04-16T17:59:02.097Z,15.02
2023-04-16T18:01:31.349Z,14.92
2023-04-16T18:04:27.878Z,14.87
2023-04-16T18:07:14.129Z,14.83
2023-04-16T18:09:53.946Z,14.74
2023-04-16T18:12:36.463Z,14.68
2023-04-16T18:15:07.440Z,14.62
2023-04-16T18:17:34.885Z,14.61
2023-04-16T18:20:12.853Z,14.55
2023-04-16T18:22:46.139Z,14.53
2023-04-16T18:25:29.943Z,14.44
2023-04-16T18:28:01.955Z,14.39
2023-04-16T18:30:40.495Z,14.28
2023-04-16T18:33:37.341Z,14.20
2023-04-16T18:36:05.313Z,14.09
2023-04-16T18:41:08.359Z,13.95
2023-04-16T18:43:56.734Z,13.93
2023-04-16T18:46:25.829Z,13.82
2023-04-16T18:48:55.096Z,13.63
2023-04-16T18:51:23.389Z,13.56
2023-04-16T18:53:51.540Z,13.52
2023-04-16T18:56:19.213Z,13.44
2023-04-16T18:58:50.362Z,13.35
2023-04-16T19:01:20.924Z,13.21
2023-04-16T19:03:54.050Z,13.11
2023-04-16T19:09:50.509Z,12.81
2023-04-16T19:13:04.947Z,12.68
2023-04-16T19:15:53.011Z,12.66
2023-04-16T19:18:37.983Z,12.60
2023-04-16T19:21:24.239Z,12.48
2023-04-16T19:26:55.478Z,12.23
2023-04-16T19:32:26.108Z,12.08
2023-04-16T19:36:03.224Z,12.02
2023-04-16T19:42:12.516Z,11.77
2023-04-16T19:50:59.336Z,11.58
2023-04-16T19:57:51.386Z,11.25
2023-04-16T20:04:56.429Z,11.42
2023-04-16T20:05:00.773Z,11.04
2023-04-16T20:08:36.209Z,11.00
2023-04-16T20:11:40.552Z,10.90
2023-04-16T20:22:49.737Z,10.82
2023-04-16T20:25:59.281Z,10.56
2023-04-16T20:29:15.981Z,10.47
2023-04-16T20:32:28.514Z,10.43
2023-04-16T20:35:12.471Z,10.40
2023-04-16T20:41:26.556Z,10.19
2023-04-16T20:44:07.026Z,10.12
2023-04-16T20:47:01.843Z,10.11
2023-04-16T20:56:01.394Z,9.84
2023-04-16T21:02:29.629Z,9.79
2023-04-16T21:04:48.363Z,9.76
2023-04-16T21:11:09.300Z,9.73
2023-04-16T21:14:14.807Z,9.71
2023-04-16T21:16:49.469Z,9.66
2023-04-16T21:22:44.250Z,9.61
2023-04-16T21:25:54.119Z,9.56
2023-04-16T21:28:18.945Z,9.55
2023-04-16T21:30:56.208Z,9.64
2023-04-16T21:33:27.539Z,9.50
2023-04-16T21:35:58.886Z,9.31
2023-04-16T21:38:36.167Z,9.25
2023-04-16T21:43:49.456Z,9.31
2023-04-16T21:49:16.300Z,9.09
2023-04-16T21:55:00.404Z,9.12
2023-04-16T21:57:38.341Z,9.15
2023-04-16T22:00:26.713Z,9.17
2023-04-16T22:03:31.527Z,9.01
2023-04-16T22:06:11.236Z,8.95
2023-04-16T22:08:43.294Z,8.92
2023-04-16T22:11:31.817Z,8.84
2023-04-16T22:14:20.855Z,8.89
2023-04-16T22:17:11.569Z,8.92
2023-04-16T22:19:57.806Z,8.89
2023-04-16T22:22:31.787Z,8.81
2023-04-16T22:25:16.301Z,8.55
2023-04-16T22:27:44.625Z,8.51
2023-04-16T22:30:28.261Z,8.52
2023-04-16T22:33:00.375Z,8.60
2023-04-16T22:35:41.262Z,8.60
2023-04-16T22:41:55.772Z,8.48
2023-04-16T22:48:00.378Z,8.44
2023-04-16T22:50:34.029Z,8.38
2023-04-16T22:56:00.279Z,8.41
2023-04-16T22:58:31.672Z,8.34
2023-04-16T23:01:06.452Z,8.36
2023-04-16T23:03:41.035Z,8.42
2023-04-16T23:06:08.161Z,8.50
2023-04-16T23:08:51.174Z,8.53
2023-04-16T23:11:20.816Z,8.68
2023-04-16T23:13:55.875Z,8.64
2023-04-16T23:16:23.372Z,8.46
2023-04-16T23:18:50.771Z,8.47
2023-04-16T23:21:21.081Z,8.54
2023-04-16T23:23:53.819Z,8.60
2023-04-16T23:26:27.704Z,8.67
2023-04-16T23:28:58.561Z,8.77
2023-04-16T23:31:31.546Z,8.66
2023-04-16T23:34:03.457Z,8.67
2023-04-16T23:36:34.798Z,8.70
2023-04-16T23:40:00.328Z,8.60
2023-04-16T23:42:28.466Z,8.69
2023-04-16T23:45:17.840Z,8.64
2023-04-16T23:48:01.120Z,8.71
2023-04-16T23:50:29.209Z,8.71
2023-04-16T23:53:14.739Z,8.80
2023-04-16T23:55:58.107Z,8.84
2023-04-16T23:58:48.594Z,8.82
